M I D A S
Marine Information and Data Acquisition System
Tripno 736 of the Zeeleeuw from 2004-06-14 06:28:19 to 2004-06-14 15:44:48
Back to CruiseResearch ActivitiesStationsMapUnderway DataData graphs

EquipmentUnitsComments
TimeDGPSUTC
LatitudeDGPSDM.mWGS84
LongitudeDGPSDM.mWGS84
SpeedMeteo Stationm/sRelative wind speed
DirectionMeteo StationdegRelative wind direction
TemperatureMeteo Stationdeg CelciusAir temperature
PressureMeteo StationPaAtmospheric pressure
HumidityMeteo Station%Relative humidity
Missing or incorrect values are displayed as -999
Metereological data collected by the RV Zeeleeuw from 2004-06-14 06:28:19 to 2004-06-14 15:44:48
Time Latitude Longitude Speed Direction Temperature Pressure Humidity
2004-06-14 06:29 51°13.597 2°56.091 3.7 107 14.8 103060 67
2004-06-14 06:30 51°13.619 2°56.016 3.6 125 14.8 103060 68
2004-06-14 06:31 51°13.647 2°55.916 2 138 14.9 103060 69
2004-06-14 06:32 51°13.673 2°55.8 3.2 153 15 103060 70
2004-06-14 06:33 51°13.682 2°55.79 3.1 159 15 103060 68
2004-06-14 06:34 51°13.674 2°55.77 0.4 221 15.1 103060 68
2004-06-14 06:35 51°13.745 2°55.705 2.8 340 15.3 103060 67
2004-06-14 06:36 51°13.866 2°55.606 2.7 3 15.4 103060 67
2004-06-14 06:37 51°14.011 2°55.516 3.5 346 15.5 103060 65
2004-06-14 06:38 51°14.158 2°55.396 4.2 331 15.6 103060 66
2004-06-14 06:39 51°14.302 2°55.183 7.2 335 15.7 103050 63
2004-06-14 06:40 51°14.44 2°54.922 8.6 327 15.8 103050 62
2004-06-14 06:41 51°14.55 2°54.609 10.5 334 15.9 103040 64
2004-06-14 06:42 51°14.507 2°54.266 11.5 350 15.9 103030 65
2004-06-14 06:43 51°14.386 2°53.936 11.9 356 15.8 103040 65
2004-06-14 06:44 51°14.261 2°53.617 11.4 358 15.8 103030 65
2004-06-14 06:45 51°14.137 2°53.293 11.7 352 15.7 103030 66
2004-06-14 06:46 51°14.01 2°52.969 11.3 352 15.7 103030 66
2004-06-14 06:47 51°13.883 2°52.642 12 353 15.7 103020 67
2004-06-14 06:48 51°13.755 2°52.317 11.8 355 15.6 103040 67
2004-06-14 06:49 51°13.629 2°51.989 11.6 359 15.6 103020 69
2004-06-14 06:50 51°13.503 2°51.66 11.2 1 15.6 103030 70
2004-06-14 06:51 51°13.376 2°51.33 11.1 357 15.6 103030 69
2004-06-14 06:52 51°13.25 2°51.001 11.4 2 15.6 103030 68
2004-06-14 06:53 51°13.125 2°50.678 11.9 359 15.6 103030 67
2004-06-14 06:54 51°12.998 2°50.344 11.7 4 15.7 103030 66
2004-06-14 06:55 51°12.866 2°50.023 11.6 5 15.7 103030 66
2004-06-14 06:56 51°12.734 2°49.701 12.5 6 15.8 103030 66
2004-06-14 06:57 51°12.604 2°49.38 12.3 9 15.9 103030 64
2004-06-14 06:58 51°12.469 2°49.026 11.4 3 15.9 103040 66
2004-06-14 06:59 51°12.346 2°48.657 12.1 5 15.8 103030 65
2004-06-14 07:00 51°12.232 2°48.322 12.1 2 15.8 103030 66
2004-06-14 07:01 51°12.12 2°47.987 12.2 358 15.8 103030 66
2004-06-14 07:02 51°12.03 2°47.638 13.1 358 15.8 103030 66
2004-06-14 07:03 51°11.94 2°47.288 12.5 354 15.9 103030 62
2004-06-14 07:04 51°11.851 2°46.938 12.2 354 15.9 103040 63
2004-06-14 07:05 51°11.761 2°46.588 12.2 354 15.9 103020 62
2004-06-14 07:06 51°11.674 2°46.236 12.5 350 16 103020 63
2004-06-14 07:07 51°11.604 2°45.882 12.1 352 16 103020 62
2004-06-14 07:08 51°11.533 2°45.514 12.6 351 16 103020 62
2004-06-14 07:09 51°11.462 2°45.152 12.8 355 16 103020 60
2004-06-14 07:10 51°11.392 2°44.797 13.4 351 16.1 103020 60
2004-06-14 07:11 51°11.321 2°44.436 13.1 351 16.1 103020 60
2004-06-14 07:12 51°11.25 2°44.069 13.1 357 16.1 103030 60
2004-06-14 07:13 51°11.181 2°43.716 12.8 359 16.1 103030 61
2004-06-14 07:14 51°11.111 2°43.351 13.1 1 16.1 103040 62
2004-06-14 07:15 51°11.042 2°42.993 12.8 3 16 103050 63
2004-06-14 07:16 51°10.973 2°42.636 12.6 5 16.1 103050 66
2004-06-14 07:17 51°10.92 2°42.284 10.7 350 16 103050 66
2004-06-14 07:18 51°11.004 2°42.091 7.3 311 16 103060 69
2004-06-14 07:19 51°11.087 2°42.052 5.3 284 15.9 103070 69
2004-06-14 07:20 51°11.113 2°42.042 5.9 265 15.9 103070 69
2004-06-14 07:21 51°11.127 2°42.032 5.7 276 15.9 103070 70
2004-06-14 07:22 51°11.138 2°42.021 5.3 283 15.9 103070 70
2004-06-14 07:23 51°11.15 2°42.011 5.5 284 15.9 103070 71
2004-06-14 07:24 51°11.161 2°42.001 4.5 276 16 103060 72
2004-06-14 07:25 51°11.172 2°41.991 5 291 16 103060 72
2004-06-14 07:26 51°11.184 2°41.981 4.9 283 16 103060 72
2004-06-14 07:27 51°11.196 2°41.973 5.1 283 16 103060 72
2004-06-14 07:28 51°11.209 2°41.964 4.9 289 16 103060 72
2004-06-14 07:29 51°11.221 2°41.957 4.5 291 16 103060 73
2004-06-14 07:30 51°11.232 2°41.95 5.9 291 16.1 103060 74
2004-06-14 07:31 51°11.245 2°41.946 5.4 290 16.1 103060 75
2004-06-14 07:32 51°11.258 2°41.943 4.9 286 16.1 103060 75
2004-06-14 07:33 51°11.273 2°41.942 5.9 291 16.1 103060 75
2004-06-14 07:34 51°11.302 2°41.807 9.8 17 16.1 103060 75
2004-06-14 07:35 51°11.2 2°41.545 12.6 10 16.1 103050 75
2004-06-14 07:36 51°11.087 2°41.242 12.3 14 16.1 103050 76
2004-06-14 07:37 51°10.98 2°40.944 12.4 15 16.1 103050 76
2004-06-14 07:38 51°10.87 2°40.622 12.7 16 16.1 103060 77
2004-06-14 07:39 51°10.79 2°40.302 11.9 12 16.1 103050 78
2004-06-14 07:40 51°10.703 2°39.961 13.1 9 16.1 103050 78
2004-06-14 07:41 51°10.621 2°39.63 13.2 7 16.1 103060 79
2004-06-14 07:42 51°10.549 2°39.293 13.2 12 16 103050 79
2004-06-14 07:43 51°10.48 2°38.963 13.3 10 16 103050 80
2004-06-14 07:44 51°10.409 2°38.63 12.8 7 15.9 103050 79
2004-06-14 07:45 51°10.335 2°38.28 12.9 6 15.9 103050 80
2004-06-14 07:46 51°10.266 2°37.953 13.4 7 15.9 103050 80
2004-06-14 07:47 51°10.192 2°37.605 12.9 9 15.9 103050 81
2004-06-14 07:48 51°10.123 2°37.28 13.5 8 15.8 103050 81
2004-06-14 07:49 51°10.05 2°36.933 13 6 15.8 103050 82
2004-06-14 07:50 51°9.979 2°36.604 13.1 9 15.9 103050 83
2004-06-14 07:51 51°9.917 2°36.26 12.1 355 15.9 103050 83
2004-06-14 07:52 51°10.017 2°35.962 11.3 340 15.9 103050 83
2004-06-14 07:53 51°10.214 2°35.819 8.5 320 15.9 103070 84
2004-06-14 07:54 51°10.428 2°35.926 6.4 312 15.9 103070 84
2004-06-14 07:55 51°10.64 2°36.08 6.9 43 15.9 103080 84
2004-06-14 07:56 51°10.85 2°36.248 6.5 318 15.9 103070 84
2004-06-14 07:57 51°11.057 2°36.421 6.1 313 15.9 103070 85
2004-06-14 07:58 51°11.26 2°36.608 5.6 312 16 103070 85
2004-06-14 07:59 51°11.459 2°36.792 5.3 313 15.9 103070 84
2004-06-14 08:00 51°11.663 2°36.987 4.2 312 15.9 103060 84
2004-06-14 08:01 51°11.865 2°37.178 4.8 306 15.8 103070 84
2004-06-14 08:02 51°12.065 2°37.369 4.7 315 15.9 103070 84
2004-06-14 08:03 51°12.266 2°37.562 4.8 42 15.9 103060 85
2004-06-14 08:04 51°12.468 2°37.751 4.7 316 15.9 103070 84
2004-06-14 08:05 51°12.664 2°37.939 5.1 315 16 103060 85
2004-06-14 08:06 51°12.868 2°38.134 5.4 314 15.9 103070 84
2004-06-14 08:07 51°13.069 2°38.327 5.8 312 15.9 103060 84
2004-06-14 08:08 51°13.272 2°38.525 5.6 311 15.9 103060 84
2004-06-14 08:09 51°13.48 2°38.71 6.5 317 15.8 103060 84
2004-06-14 08:10 51°13.7 2°38.842 6.2 319 15.9 103050 84
2004-06-14 08:11 51°13.924 2°38.899 7.8 312 15.9 103040 84
2004-06-14 08:12 51°14.139 2°38.863 9.9 328 15.9 103040 84
2004-06-14 08:13 51°14.334 2°38.703 10.4 328 15.9 103020 84
2004-06-14 08:14 51°14.531 2°38.539 10.7 320 15.8 103020 84
2004-06-14 08:15 51°14.73 2°38.367 10.4 325 15.8 103010 84
2004-06-14 08:16 51°14.925 2°38.207 10.1 325 15.8 103020 84
2004-06-14 08:17 51°15.128 2°38.052 9.5 325 15.7 103010 84
2004-06-14 08:18 51°15.32 2°37.893 9.4 327 15.7 103010 84
2004-06-14 08:19 51°15.518 2°37.729 10.3 327 15.7 103020 84
2004-06-14 08:20 51°15.715 2°37.568 11.1 324 15.7 103020 84
2004-06-14 08:21 51°15.91 2°37.405 11.1 327 15.7 103010 84
2004-06-14 08:22 51°16.107 2°37.237 11.4 326 15.6 103010 84
2004-06-14 08:23 51°16.305 2°37.064 11 326 15.6 103000 84
2004-06-14 08:24 51°16.49 2°36.9 9.2 324 15.6 103000 84
2004-06-14 08:25 51°16.561 2°36.781 7.7 336 15.6 103010 84
2004-06-14 08:26 51°16.588 2°36.745 6.8 287 15.6 103010 85
2004-06-14 08:27 51°16.603 2°36.759 4.7 262 15.6 103020 85
2004-06-14 08:28 51°16.619 2°36.779 2.6 253 15.6 103020 85
2004-06-14 08:29 51°16.636 2°36.8 5.7 258 15.6 103010 86
2004-06-14 08:30 51°16.651 2°36.819 6.5 275 15.5 103010 85
2004-06-14 08:31 51°16.667 2°36.838 7.1 284 15.5 103010 85
2004-06-14 08:32 51°16.686 2°36.85 6.5 297 15.5 103010 85
2004-06-14 08:33 51°16.703 2°36.863 7 303 15.6 103020 85
2004-06-14 08:34 51°16.719 2°36.877 6.1 309 15.6 103020 85
2004-06-14 08:35 51°16.734 2°36.893 5.5 314 15.6 103020 85
2004-06-14 08:36 51°16.749 2°36.91 6.3 304 15.8 103020 86
2004-06-14 08:37 51°16.764 2°36.93 6 303 15.8 103020 85
2004-06-14 08:38 51°16.784 2°36.914 7.5 357 15.8 103020 85
2004-06-14 08:39 51°16.759 2°36.876 7.7 51 15.8 103010 84
2004-06-14 08:40 51°16.715 2°36.854 8.1 39 15.7 103010 85
2004-06-14 08:41 51°16.646 2°36.803 7.9 27 15.6 103010 85
2004-06-14 08:42 51°16.62 2°36.771 6.8 37 15.6 103010 85
2004-06-14 08:43 51°16.615 2°36.783 6.7 65 15.5 103010 85
2004-06-14 08:44 51°16.611 2°36.804 5 71 15.5 103010 85
2004-06-14 08:45 51°16.606 2°36.828 5.1 76 15.6 103010 86
2004-06-14 08:46 51°16.601 2°36.852 6.2 61 15.6 103010 85
2004-06-14 08:47 51°16.555 2°36.812 7.8 3 15.5 103000 86
2004-06-14 08:48 51°16.584 2°36.693 8.6 330 15.6 103000 86
2004-06-14 08:49 51°16.651 2°36.558 8.2 337 15.7 102990 85
2004-06-14 08:50 51°16.719 2°36.401 8.7 335 15.8 102990 85
2004-06-14 08:51 51°16.82 2°36.191 11.4 338 15.8 102990 85
2004-06-14 08:52 51°16.973 2°35.926 10.2 333 15.8 102960 85
2004-06-14 08:53 51°17.158 2°35.724 9.6 332 15.8 102990 85
2004-06-14 08:54 51°17.332 2°35.528 9.9 334 15.8 102990 85
2004-06-14 08:55 51°17.506 2°35.326 10.2 332 15.9 102970 84
2004-06-14 08:56 51°17.63 2°35.057 11.4 343 15.9 102970 85
2004-06-14 08:57 51°17.746 2°34.777 11.8 344 15.9 102970 85
2004-06-14 08:58 51°17.863 2°34.488 12.4 342 15.9 102970 85
2004-06-14 08:59 51°17.994 2°34.201 11.7 340 15.9 102960 85
2004-06-14 09:00 51°18.129 2°33.932 11.1 341 15.9 102960 85
2004-06-14 09:01 51°18.268 2°33.655 11.9 342 15.9 102970 85
2004-06-14 09:02 51°18.402 2°33.384 11.3 340 15.9 102980 85
2004-06-14 09:03 51°18.532 2°33.113 11 340 15.9 102960 85
2004-06-14 09:04 51°18.67 2°32.83 11.6 339 15.8 102970 85
2004-06-14 09:05 51°18.806 2°32.549 12.4 342 15.8 102980 85
2004-06-14 09:06 51°18.943 2°32.268 11.4 339 15.8 102970 86
2004-06-14 09:07 51°19.08 2°31.985 11.4 337 15.8 102960 86
2004-06-14 09:09 51°19.235 2°31.668 11.4 342 15.8 102970 86
2004-06-14 09:10 51°19.37 2°31.387 10.5 339 15.8 102980 86
2004-06-14 09:11 51°19.504 2°31.113 11.6 341 15.8 102970 86
2004-06-14 09:12 51°19.651 2°30.813 11.3 343 15.7 102960 86
2004-06-14 09:13 51°19.78 2°30.55 11 339 15.7 102970 87
2004-06-14 09:14 51°19.916 2°30.257 11 342 15.7 102960 87
2004-06-14 09:15 51°19.983 2°30.114 7.4 344 15.7 102990 87
2004-06-14 09:16 51°19.989 2°30.038 6.7 3 15.7 102990 87
2004-06-14 09:17 51°19.983 2°29.984 6.5 352 15.7 102990 87
2004-06-14 09:18 51°19.991 2°29.996 5.2 350 15.7 102990 87
2004-06-14 09:19 51°20.001 2°30.012 5 346 15.7 102990 87
2004-06-14 09:20 51°20.014 2°30.035 4.4 333 15.7 102980 88
2004-06-14 09:21 51°20.028 2°30.069 4.8 330 15.8 103000 88
2004-06-14 09:22 51°20.042 2°30.106 5.1 321 15.7 102980 88
2004-06-14 09:23 51°20.057 2°30.143 5.4 307 15.8 102980 88
2004-06-14 09:24 51°20.073 2°30.18 5.5 227 15.7 102980 88
2004-06-14 09:25 51°20.09 2°30.21 5.6 329 15.8 102990 88
2004-06-14 09:26 51°20.087 2°30.202 6.9 32 15.8 102980 88
2004-06-14 09:27 51°20.025 2°30.276 5.3 84 15.7 102980 87
2004-06-14 09:28 51°19.869 2°30.515 7.7 51 15.6 102970 88
2004-06-14 09:29 51°19.695 2°30.774 6.5 60 15.5 102970 88
2004-06-14 09:30 51°19.564 2°31.097 6.1 58 15.5 102970 89
2004-06-14 09:31 51°19.438 2°31.422 5.9 67 15.4 102970 89
2004-06-14 09:32 51°19.314 2°31.739 6.2 65 15.4 102980 89
2004-06-14 09:33 51°19.19 2°32.055 5.9 57 15.4 102970 89
2004-06-14 09:34 51°19.055 2°32.358 6.6 69 15.4 102970 90
2004-06-14 09:35 51°18.92 2°32.659 6 62 15.4 102970 90
2004-06-14 09:36 51°18.787 2°32.96 5.6 66 15.4 102970 90
2004-06-14 09:37 51°18.653 2°33.264 5.9 61 15.4 102970 90
2004-06-14 09:38 51°18.519 2°33.569 5.9 66 15.4 102970 90
2004-06-14 09:39 51°18.385 2°33.881 6.1 58 15.4 102970 90
2004-06-14 09:40 51°18.25 2°34.193 6 63 15.4 102970 90
2004-06-14 09:41 51°18.116 2°34.505 5.5 72 15.4 102970 90
2004-06-14 09:42 51°17.982 2°34.816 5.7 59 15.5 102970 90
2004-06-14 09:43 51°17.844 2°35.126 6.3 56 15.5 102970 90
2004-06-14 09:44 51°17.705 2°35.438 6 57 15.5 102970 90
2004-06-14 09:45 51°17.562 2°35.748 5.4 66 15.5 102970 90
2004-06-14 09:46 51°17.421 2°36.057 6.1 66 15.5 102960 90
2004-06-14 09:47 51°17.284 2°36.365 4.9 65 15.6 102970 90
2004-06-14 09:48 51°17.154 2°36.672 5.8 68 15.6 102970 90
2004-06-14 09:49 51°17.023 2°36.974 5.6 69 15.5 102970 90
2004-06-14 09:50 51°16.889 2°37.286 6.3 61 15.6 102970 90
2004-06-14 09:51 51°16.739 2°37.571 6.3 67 15.6 102970 90
2004-06-14 09:52 51°16.587 2°37.853 5.8 77 15.6 102960 90
2004-06-14 09:53 51°16.436 2°38.135 5.6 66 15.6 102960 90
2004-06-14 09:54 51°16.278 2°38.419 6.4 64 15.6 102960 90
2004-06-14 09:55 51°16.117 2°38.706 5.7 62 15.6 102960 90
2004-06-14 09:56 51°15.96 2°38.993 6 65 15.6 102970 90
2004-06-14 09:57 51°15.811 2°39.285 5.5 70 15.6 102970 89
2004-06-14 09:58 51°15.663 2°39.574 5.8 73 15.6 102960 89
2004-06-14 09:59 51°15.515 2°39.859 6.6 66 15.6 102970 89
2004-06-14 10:00 51°15.371 2°40.149 6.2 65 15.6 102970 89
2004-06-14 10:01 51°15.227 2°40.44 6.3 64 15.6 102960 89
2004-06-14 10:02 51°15.082 2°40.737 6 55 15.6 102970 89
2004-06-14 10:03 51°14.942 2°41.044 6.1 65 15.7 102960 89
2004-06-14 10:04 51°14.805 2°41.358 5.7 64 15.7 102970 89
2004-06-14 10:05 51°14.673 2°41.68 5.4 52 15.7 102970 88
2004-06-14 10:06 51°14.571 2°42.028 3.9 55 15.7 102970 88
2004-06-14 10:07 51°14.585 2°42.417 1.9 9 15.8 102980 88
2004-06-14 10:08 51°14.634 2°42.812 1.9 360 15.9 102970 88
2004-06-14 10:09 51°14.684 2°43.208 1.8 356 16 102980 87
2004-06-14 10:10 51°14.729 2°43.605 1.7 9 16.2 102970 87
2004-06-14 10:11 51°14.777 2°44.003 2.6 6 16.3 102970 87
2004-06-14 10:12 51°14.83 2°44.401 2.6 343 16.4 102970 86
2004-06-14 10:13 51°14.894 2°44.799 1.7 1 16.4 102970 85
2004-06-14 10:14 51°14.956 2°45.194 1.8 346 16.5 102970 85
2004-06-14 10:15 51°15.016 2°45.588 2.4 359 16.5 102970 84
2004-06-14 10:16 51°15.073 2°45.968 2.8 343 16.6 102970 84
2004-06-14 10:17 51°15.133 2°46.373 1.6 357 16.6 102970 84
2004-06-14 10:18 51°15.19 2°46.766 2.3 5 16.6 102970 83
2004-06-14 10:19 51°15.245 2°47.158 2.5 2 16.7 102970 83
2004-06-14 10:20 51°15.3 2°47.55 2.4 13 16.7 102970 83
2004-06-14 10:21 51°15.357 2°47.939 2 5 16.7 102970 82
2004-06-14 10:22 51°15.41 2°48.323 2.5 10 16.7 102970 82
2004-06-14 10:23 51°15.462 2°48.706 2.4 8 16.7 102970 82
2004-06-14 10:24 51°15.517 2°49.086 2.1 13 16.7 102960 82
2004-06-14 10:25 51°15.572 2°49.47 2.1 1 16.6 102970 82
2004-06-14 10:26 51°15.63 2°49.856 2.4 18 16.7 102960 82
2004-06-14 10:27 51°15.688 2°50.246 2.1 10 16.7 102970 82
2004-06-14 10:28 51°15.744 2°50.604 0.6 31 16.7 102960 83
2004-06-14 10:29 51°15.756 2°50.82 3 133 16.8 102960 83
2004-06-14 10:30 51°15.739 2°50.965 3.8 118 16.7 102960 82
2004-06-14 10:31 51°15.712 2°51.078 3.8 103 16.7 102960 83
2004-06-14 10:32 51°15.676 2°51.186 4.1 110 16.7 102970 83
2004-06-14 10:33 51°15.636 2°51.296 3.8 116 16.6 102960 83
2004-06-14 10:34 51°15.615 2°51.482 0.6 69 16.6 102970 83
2004-06-14 10:35 51°15.691 2°51.83 2.9 344 16.7 102970 84
2004-06-14 10:36 51°15.775 2°52.216 2.4 348 16.7 102970 84
2004-06-14 10:37 51°15.858 2°52.603 3.2 7 16.7 102970 83
2004-06-14 10:38 51°15.927 2°52.994 2.9 8 16.8 102960 83
2004-06-14 10:39 51°15.981 2°53.389 2.6 5 16.9 102960 83
2004-06-14 10:40 51°16.036 2°53.781 2.9 12 16.9 102960 83
2004-06-14 10:41 51°16.092 2°54.152 1.2 344 16.9 102960 82
2004-06-14 10:42 51°16.17 2°54.352 3.9 277 16.9 102960 83
2004-06-14 10:43 51°16.251 2°54.363 6.7 335 16.8 102950 82
2004-06-14 10:44 51°16.259 2°54.295 6 13 16.9 102940 83
2004-06-14 10:45 51°16.27 2°54.3 5.2 335 16.7 102950 82
2004-06-14 10:46 51°16.287 2°54.318 4.9 227 16.7 102950 82
2004-06-14 10:47 51°16.308 2°54.339 5.3 315 16.7 102950 83
2004-06-14 10:48 51°16.336 2°54.36 4.9 290 16.7 102960 83
2004-06-14 10:49 51°16.362 2°54.388 4.8 297 16.7 102950 82
2004-06-14 10:50 51°16.387 2°54.418 5.2 292 16.7 102950 83
2004-06-14 10:51 51°16.421 2°54.433 6 335 16.7 102960 83
2004-06-14 10:52 51°16.432 2°54.298 8 36 16.8 102950 83
2004-06-14 10:53 51°16.302 2°54.276 8.5 51 16.6 102950 83
2004-06-14 10:54 51°16.176 2°54.265 5.6 82 16.5 102950 84
2004-06-14 10:55 51°16.115 2°54.396 2.7 127 16.4 102960 85
2004-06-14 10:56 51°16.125 2°54.598 3.6 261 16.4 102970 85
2004-06-14 10:57 51°16.201 2°54.7 4.6 272 16.5 102960 85
2004-06-14 10:58 51°16.264 2°54.764 5.3 263 16.5 102960 85
2004-06-14 10:59 51°16.318 2°54.825 4.7 265 16.5 102960 85
2004-06-14 11:00 51°16.366 2°54.886 3.1 252 16.5 102960 85
2004-06-14 11:01 51°16.411 2°54.945 3.7 258 16.5 102960 85
2004-06-14 11:02 51°16.455 2°55.003 4 260 16.5 102960 85
2004-06-14 11:03 51°16.495 2°55.061 3.2 257 16.5 102960 85
2004-06-14 11:04 51°16.533 2°55.123 3.7 256 16.5 102960 85
2004-06-14 11:05 51°16.571 2°55.182 3.2 251 16.5 102960 85
2004-06-14 11:06 51°16.609 2°55.237 2.9 257 16.5 102960 85
2004-06-14 11:07 51°16.647 2°55.292 4.2 260 16.4 102960 85
2004-06-14 11:08 51°16.683 2°55.348 3.4 255 16.5 102960 85
2004-06-14 11:09 51°16.721 2°55.401 3.2 257 16.5 102960 85
2004-06-14 11:10 51°16.757 2°55.454 3.2 255 16.5 102960 85
2004-06-14 11:11 51°16.795 2°55.511 3.2 254 16.5 102960 85
2004-06-14 11:12 51°16.83 2°55.566 2.7 256 16.5 102950 85
2004-06-14 11:13 51°16.867 2°55.692 2.3 84 16.5 102960 85
2004-06-14 11:14 51°16.789 2°55.775 7.1 31 16.5 102940 85
2004-06-14 11:15 51°16.71 2°55.602 11.1 24 16.6 102940 85
2004-06-14 11:16 51°16.599 2°55.342 12.2 23 16.6 102930 85
2004-06-14 11:17 51°16.491 2°55.069 12 16 16.7 102940 85
2004-06-14 11:18 51°16.392 2°54.784 10.8 18 16.6 102930 85
2004-06-14 11:19 51°16.293 2°54.504 10.8 18 16.6 102940 85
2004-06-14 11:20 51°16.246 2°54.339 7.3 18 16.6 102940 85
2004-06-14 11:21 51°16.246 2°54.308 4.7 350 16.6 102950 84
2004-06-14 11:22 51°16.262 2°54.308 5.1 336 16.7 102950 85
2004-06-14 11:23 51°16.281 2°54.316 4.7 324 16.7 102950 84
2004-06-14 11:24 51°16.301 2°54.331 4.8 317 16.7 102950 85
2004-06-14 11:25 51°16.32 2°54.349 4.6 322 16.8 102950 85
2004-06-14 11:26 51°16.34 2°54.369 4.9 43 16.8 102950 84
2004-06-14 11:27 51°16.358 2°54.39 4.9 42 16.8 102950 84
2004-06-14 11:28 51°16.375 2°54.412 4.5 43 16.9 102950 84
2004-06-14 11:29 51°16.393 2°54.436 4.8 313 16.9 102950 84
2004-06-14 11:30 51°16.412 2°54.462 4.3 308 16.9 102960 83
2004-06-14 11:31 51°16.43 2°54.487 4.4 294 16.9 102950 84
2004-06-14 11:32 51°16.472 2°54.494 6 321 17 102950 84
2004-06-14 11:33 51°16.57 2°54.365 9.8 354 16.9 102930 83
2004-06-14 11:34 51°16.659 2°54.111 9.8 358 16.9 102930 83
2004-06-14 11:35 51°16.742 2°53.87 9.6 353 16.8 102930 84
2004-06-14 11:36 51°16.836 2°53.625 10.5 351 16.8 102940 84
2004-06-14 11:37 51°16.936 2°53.385 10.2 353 16.8 102930 84
2004-06-14 11:38 51°17.036 2°53.145 10.1 355 16.8 102930 84
2004-06-14 11:39 51°17.137 2°52.903 9.3 349 16.8 102930 84
2004-06-14 11:40 51°17.233 2°52.652 9.8 348 16.9 102920 84
2004-06-14 11:41 51°17.338 2°52.432 9.1 351 16.9 102920 84
2004-06-14 11:42 51°17.45 2°52.196 9.7 349 16.9 102910 84
2004-06-14 11:43 51°17.564 2°51.985 9.6 346 16.9 102920 84
2004-06-14 11:44 51°17.697 2°51.779 9.9 347 16.9 102910 84
2004-06-14 11:45 51°17.824 2°51.577 9.4 344 16.8 102900 84
2004-06-14 11:46 51°17.954 2°51.365 9.3 346 16.8 102900 84
2004-06-14 11:47 51°18.079 2°51.16 9.4 343 16.8 102910 84
2004-06-14 11:48 51°18.208 2°50.947 9.3 341 16.8 102910 84
2004-06-14 11:49 51°18.314 2°50.82 6.6 345 16.8 102910 84
2004-06-14 11:50 51°18.339 2°50.779 5 3 16.9 102920 85
2004-06-14 11:51 51°18.348 2°50.781 4.5 19 16.8 102920 84
2004-06-14 11:52 51°18.354 2°50.787 4.6 23 16.8 102910 84
2004-06-14 11:53 51°18.359 2°50.797 4.5 34 16.8 102910 84
2004-06-14 11:54 51°18.361 2°50.812 4.3 46 16.7 102910 85
2004-06-14 11:55 51°18.364 2°50.828 4.5 55 16.5 102910 85
2004-06-14 11:56 51°18.367 2°50.846 4 40 16.5 102910 85
2004-06-14 11:57 51°18.372 2°50.864 4.2 44 16.4 102910 86
2004-06-14 11:58 51°18.371 2°50.867 5.3 17 16.3 102910 86
2004-06-14 11:59 51°18.389 2°50.815 5.7 323 16.4 102900 87
2004-06-14 12:00 51°18.434 2°50.778 4.8 325 16.5 102920 87
2004-06-14 12:01 51°18.471 2°50.747 5.5 317 16.6 102910 87
2004-06-14 12:02 51°18.504 2°50.717 5.9 319 16.7 102900 86
2004-06-14 12:03 51°18.537 2°50.693 4.8 317 16.8 102910 86
2004-06-14 12:04 51°18.575 2°50.675 5 313 16.9 102910 86
2004-06-14 12:05 51°18.612 2°50.664 5.1 311 16.8 102910 85
2004-06-14 12:06 51°18.65 2°50.656 4.6 229 16.9 102910 85
2004-06-14 12:07 51°18.685 2°50.649 5 314 16.9 102910 85
2004-06-14 12:08 51°18.722 2°50.643 5.1 311 17 102910 85
2004-06-14 12:09 51°18.759 2°50.638 5.4 229 17 102900 84
2004-06-14 12:10 51°18.794 2°50.629 4.8 317 17 102910 84
2004-06-14 12:11 51°18.825 2°50.618 4.8 321 17 102900 84
2004-06-14 12:12 51°18.853 2°50.607 4.7 320 17 102900 84
2004-06-14 12:13 51°18.873 2°50.612 5 42 17 102900 84
2004-06-14 12:14 51°18.893 2°50.619 4.7 316 17 102900 84
2004-06-14 12:15 51°18.937 2°50.583 7.6 326 17.1 102900 84
2004-06-14 12:16 51°19.116 2°50.478 9 332 17 102890 83
2004-06-14 12:17 51°19.331 2°50.36 9 334 16.9 102880 83
2004-06-14 12:18 51°19.556 2°50.259 8.5 331 16.9 102880 84
2004-06-14 12:19 51°19.785 2°50.168 8.5 331 16.8 102880 84
2004-06-14 12:20 51°20.018 2°50.078 9.3 329 16.8 102870 84
2004-06-14 12:21 51°20.243 2°49.99 8.3 331 16.8 102880 84
2004-06-14 12:22 51°20.475 2°49.909 8.6 332 16.8 102880 85
2004-06-14 12:23 51°20.716 2°49.83 8.5 334 16.8 102880 85
2004-06-14 12:24 51°20.935 2°49.746 9.2 333 16.8 102880 85
2004-06-14 12:25 51°21.175 2°49.66 8.7 333 16.7 102890 85
2004-06-14 12:26 51°21.428 2°49.568 9.4 329 16.7 102880 85
2004-06-14 12:27 51°21.659 2°49.484 8 332 16.7 102870 85
2004-06-14 12:28 51°21.889 2°49.406 8.1 331 16.7 102870 85
2004-06-14 12:29 51°22.137 2°49.324 8.2 332 16.7 102880 85
2004-06-14 12:30 51°22.362 2°49.244 8.2 333 16.7 102870 86
2004-06-14 12:32 51°22.629 2°49.157 7.8 330 16.6 102880 85
2004-06-14 12:33 51°22.886 2°49.097 7.4 335 16.6 102880 86
2004-06-14 12:34 51°23.125 2°49.043 7.7 337 16.6 102880 86
2004-06-14 12:35 51°23.383 2°48.982 7.8 335 16.6 102870 86
2004-06-14 12:36 51°23.616 2°48.926 8.1 339 16.6 102870 86
2004-06-14 12:37 51°23.855 2°48.867 7.5 336 16.6 102860 86
2004-06-14 12:38 51°24.092 2°48.807 7.8 335 16.6 102860 86
2004-06-14 12:39 51°24.336 2°48.786 7.2 332 16.6 102870 86
2004-06-14 12:40 51°24.575 2°48.797 7.5 335 16.5 102870 87
2004-06-14 12:41 51°24.82 2°48.801 7.2 333 16.5 102860 87
2004-06-14 12:42 51°25.052 2°48.804 7.2 334 16.5 102860 87
2004-06-14 12:43 51°25.3 2°48.808 7.4 332 16.4 102870 87
2004-06-14 12:44 51°25.537 2°48.797 7.8 331 16.4 102870 87
2004-06-14 12:45 51°25.782 2°48.765 8.2 334 16.4 102870 87
2004-06-14 12:46 51°25.985 2°48.704 6.6 325 16.4 102870 88
2004-06-14 12:47 51°26.068 2°48.602 6.8 2 16.4 102860 88
2004-06-14 12:48 51°26.028 2°48.525 6.8 33 16.4 102870 88
2004-06-14 12:49 51°25.986 2°48.498 4.9 52 16.3 102870 88
2004-06-14 12:50 51°25.977 2°48.508 4.5 62 16.2 102870 88
2004-06-14 12:51 51°25.97 2°48.524 4.4 55 16.1 102870 89
2004-06-14 12:52 51°25.968 2°48.537 3.9 49 16.1 102870 89
2004-06-14 12:53 51°25.97 2°48.547 4.2 36 16.1 102870 90
2004-06-14 12:54 51°25.973 2°48.557 3.8 27 16.1 102870 90
2004-06-14 12:55 51°25.979 2°48.567 4.1 21 16.1 102870 90
2004-06-14 12:56 51°25.986 2°48.578 3.6 4 16.2 102870 90
2004-06-14 12:57 51°25.994 2°48.587 3.8 356 16.3 102870 90
2004-06-14 12:58 51°26.005 2°48.597 4 346 16.3 102870 90
2004-06-14 12:59 51°26.029 2°48.575 5 307 16.4 102870 90
2004-06-14 13:00 51°26.103 2°48.602 1.8 214 16.3 102870 90
2004-06-14 13:01 51°26.166 2°48.791 2.7 3 16.4 102870 90
2004-06-14 13:02 51°26.253 2°49.141 3.9 16 16.4 102880 90
2004-06-14 13:03 51°26.289 2°49.519 3.8 18 16.5 102860 89
2004-06-14 13:04 51°26.325 2°49.901 4 26 16.4 102870 89
2004-06-14 13:05 51°26.361 2°50.284 4.1 19 16.4 102870 89
2004-06-14 13:06 51°26.4 2°50.676 3.6 25 16.4 102870 89
2004-06-14 13:07 51°26.437 2°51.06 3.9 19 16.5 102870 89
2004-06-14 13:08 51°26.474 2°51.442 3.7 20 16.5 102860 89
2004-06-14 13:09 51°26.508 2°51.818 3.7 17 16.5 102870 89
2004-06-14 13:10 51°26.546 2°52.203 3.2 30 16.5 102870 89
2004-06-14 13:11 51°26.581 2°52.575 3.5 20 16.5 102860 89
2004-06-14 13:12 51°26.613 2°52.941 3.2 19 16.5 102870 89
2004-06-14 13:13 51°26.652 2°53.34 3.4 20 16.5 102860 89
2004-06-14 13:14 51°26.7 2°53.706 3 3 16.5 102860 89
2004-06-14 13:15 51°26.783 2°54.066 3.1 5 16.6 102850 89
2004-06-14 13:16 51°26.862 2°54.445 3.2 7 16.6 102860 89
2004-06-14 13:17 51°26.944 2°54.845 4.2 10 16.7 102860 88
2004-06-14 13:18 51°27.018 2°55.216 3.4 9 16.8 102860 88
2004-06-14 13:19 51°27.089 2°55.578 3.6 5 16.8 102860 88
2004-06-14 13:20 51°27.162 2°55.953 3.4 358 16.8 102860 87
2004-06-14 13:21 51°27.235 2°56.322 3.4 7 16.8 102860 87
2004-06-14 13:22 51°27.307 2°56.691 3.3 354 16.9 102850 87
2004-06-14 13:23 51°27.376 2°57.051 3.2 350 16.9 102860 87
2004-06-14 13:24 51°27.445 2°57.423 3.4 15 16.9 102860 86
2004-06-14 13:25 51°27.504 2°57.785 3.9 9 16.9 102860 87
2004-06-14 13:26 51°27.561 2°58.149 2.9 15 17 102850 86
2004-06-14 13:27 51°27.62 2°58.511 3.2 8 17 102860 86
2004-06-14 13:28 51°27.68 2°58.877 3.3 6 17 102850 86
2004-06-14 13:29 51°27.741 2°59.242 3 7 17.1 102850 86
2004-06-14 13:30 51°27.802 2°59.608 3.2 14 17.1 102850 85
2004-06-14 13:31 51°27.862 2°59.977 3.4 11 17.1 102850 85
2004-06-14 13:32 51°27.924 3°0.354 3.2 19 17.1 102840 85
2004-06-14 13:33 51°27.984 3°0.718 3.1 9 17.2 102850 85
2004-06-14 13:34 51°28.047 3°1.089 3.5 5 17.2 102840 85
2004-06-14 13:35 51°28.115 3°1.471 3.1 4 17.2 102840 85
2004-06-14 13:36 51°28.179 3°1.848 2.9 7 17.2 102840 85
2004-06-14 13:37 51°28.241 3°2.218 2.9 11 17.2 102840 84
2004-06-14 13:38 51°28.3 3°2.592 2.9 7 17.2 102830 85
2004-06-14 13:39 51°28.359 3°2.969 2.7 7 17.2 102840 84
2004-06-14 13:40 51°28.41 3°3.322 1.2 36 17.2 102840 84
2004-06-14 13:41 51°28.391 3°3.529 5.9 82 17.2 102830 84
2004-06-14 13:42 51°28.313 3°3.506 7.4 32 17.1 102820 84
2004-06-14 13:43 51°28.273 3°3.449 5.5 34 17 102820 85
2004-06-14 13:44 51°28.271 3°3.435 5.1 9 16.9 102830 86
2004-06-14 13:45 51°28.273 3°3.424 4.9 11 16.9 102830 86
2004-06-14 13:46 51°28.277 3°3.413 4.6 1 16.9 102820 86
2004-06-14 13:47 51°28.284 3°3.404 4.5 355 16.9 102830 86
2004-06-14 13:48 51°28.294 3°3.397 4.5 338 16.9 102820 86
2004-06-14 13:49 51°28.323 3°3.357 5.8 308 17 102820 86
2004-06-14 13:50 51°28.394 3°3.421 0.8 176 16.9 102830 86
2004-06-14 13:51 51°28.319 3°3.627 5.6 50 16.9 102820 86
2004-06-14 13:52 51°28.188 3°3.908 5.7 57 16.8 102820 86
2004-06-14 13:53 51°28.052 3°4.191 6.4 52 16.7 102820 87
2004-06-14 13:54 51°27.917 3°4.475 6.2 59 16.6 102820 88
2004-06-14 13:55 51°27.785 3°4.756 6 50 16.5 102820 88
2004-06-14 13:56 51°27.653 3°5.037 5.8 58 16.5 102820 88
2004-06-14 13:57 51°27.519 3°5.317 6.4 50 16.5 102820 88
2004-06-14 13:58 51°27.351 3°5.537 7.1 50 16.5 102810 89
2004-06-14 13:59 51°27.166 3°5.72 7.5 58 16.5 102810 89
2004-06-14 14:00 51°26.984 3°5.908 7.3 48 16.5 102820 89
2004-06-14 14:01 51°26.803 3°6.097 7.1 55 16.5 102820 89
2004-06-14 14:02 51°26.622 3°6.286 7.4 57 16.5 102820 89
2004-06-14 14:03 51°26.442 3°6.48 7 54 16.5 102810 90
2004-06-14 14:04 51°26.261 3°6.675 6.8 53 16.5 102810 89
2004-06-14 14:05 51°26.08 3°6.868 7.2 55 16.5 102820 89
2004-06-14 14:06 51°25.9 3°7.058 6.5 52 16.6 102810 90
2004-06-14 14:07 51°25.723 3°7.25 6.7 51 16.6 102820 89
2004-06-14 14:08 51°25.543 3°7.438 7.1 54 16.6 102810 90
2004-06-14 14:09 51°25.365 3°7.621 6.7 52 16.6 102810 89
2004-06-14 14:10 51°25.186 3°7.796 6.1 57 16.7 102810 89
2004-06-14 14:11 51°25.01 3°7.964 6.4 58 16.7 102820 90
2004-06-14 14:12 51°24.832 3°8.143 7.1 53 16.7 102820 89
2004-06-14 14:13 51°24.622 3°8.144 10.7 34 16.7 102810 89
2004-06-14 14:14 51°24.47 3°7.876 11.7 27 16.8 102790 89
2004-06-14 14:15 51°24.303 3°7.626 10.2 38 16.9 102790 88
2004-06-14 14:16 51°24.088 3°7.588 8 50 17 102800 88
2004-06-14 14:17 51°23.894 3°7.74 6.5 59 16.9 102810 88
2004-06-14 14:18 51°23.733 3°7.976 5.2 55 16.9 102820 89
2004-06-14 14:19 51°23.608 3°8.262 4.3 57 16.9 102820 88
2004-06-14 14:20 51°23.504 3°8.57 3.7 51 16.9 102820 89
2004-06-14 14:21 51°23.4 3°8.876 3.7 57 16.9 102820 89
2004-06-14 14:22 51°23.294 3°9.183 3.8 53 16.9 102820 88
2004-06-14 14:23 51°23.184 3°9.484 3.9 53 17 102810 89
2004-06-14 14:24 51°23.07 3°9.784 3.6 54 16.9 102810 89
2004-06-14 14:25 51°22.957 3°10.084 4.2 57 16.9 102810 89
2004-06-14 14:26 51°22.844 3°10.383 4.1 52 17 102810 89
2004-06-14 14:27 51°22.751 3°10.7 3.1 27 17 102810 88
2004-06-14 14:28 51°22.685 3°11.035 2.8 38 17 102800 89
2004-06-14 14:29 51°22.639 3°11.374 2 34 17.1 102810 89
2004-06-14 14:30 51°22.614 3°11.713 1.9 358 17.2 102810 88
2004-06-14 14:31 51°22.623 3°12.048 1.9 350 17.3 102800 88
2004-06-14 14:32 51°22.626 3°12.379 1.6 341 17.4 102810 88
2004-06-14 14:33 51°22.619 3°12.704 1.4 21 17.5 102810 88
2004-06-14 14:34 51°22.595 3°12.999 0.8 132 17.5 102810 87
2004-06-14 14:35 51°22.58 3°13.136 2.9 227 17.6 102800 87
2004-06-14 14:36 51°22.605 3°13.177 4.7 249 17.6 102800 86
2004-06-14 14:37 51°22.619 3°13.159 5.5 259 17.5 102800 85
2004-06-14 14:38 51°22.633 3°13.133 5.8 268 17.5 102810 85
2004-06-14 14:39 51°22.646 3°13.103 6.6 279 17.5 102810 86
2004-06-14 14:40 51°22.658 3°13.071 7.1 278 17.5 102800 86
2004-06-14 14:41 51°22.669 3°13.037 6.4 282 17.5 102810 85
2004-06-14 14:42 51°22.694 3°12.989 6.1 311 17.6 102800 85
2004-06-14 14:43 51°22.722 3°12.864 7.8 14 17.7 102790 86
2004-06-14 14:44 51°22.67 3°12.624 12.1 20 17.7 102790 85
2004-06-14 14:45 51°22.581 3°12.263 12.3 20 17.6 102780 85
2004-06-14 14:46 51°22.499 3°11.878 13.5 24 17.7 102780 85
2004-06-14 14:47 51°22.414 3°11.497 12.2 15 17.6 102780 84
2004-06-14 14:48 51°22.34 3°11.113 12.6 16 17.6 102770 84
2004-06-14 14:49 51°22.273 3°10.719 12.4 14 17.7 102770 84
2004-06-14 14:50 51°22.206 3°10.343 12.4 18 17.7 102770 84
2004-06-14 14:51 51°22.074 3°10.006 12.1 25 17.7 102770 84
2004-06-14 14:52 51°21.927 3°9.666 11.8 24 17.7 102770 84
2004-06-14 14:53 51°21.783 3°9.328 12.7 25 17.7 102760 84
2004-06-14 14:54 51°21.645 3°8.988 12 22 17.7 102770 84
2004-06-14 14:55 51°21.504 3°8.648 11.9 23 17.7 102770 84
2004-06-14 14:56 51°21.366 3°8.313 11.4 21 17.7 102770 84
2004-06-14 14:57 51°21.227 3°7.993 11.4 27 17.7 102770 84
2004-06-14 14:58 51°21.098 3°7.675 11.5 21 17.7 102770 84
2004-06-14 14:59 51°20.964 3°7.367 10.4 31 17.7 102770 84
2004-06-14 15:00 51°20.78 3°7.15 10.5 30 17.6 102770 84
2004-06-14 15:01 51°20.599 3°6.936 9.6 28 17.6 102770 84
2004-06-14 15:02 51°20.4 3°6.748 10.2 32 17.5 102770 84
2004-06-14 15:03 51°20.192 3°6.6 9.7 34 17.4 102770 85
2004-06-14 15:04 51°20 3°6.405 9.9 34 17.4 102770 85
2004-06-14 15:05 51°19.816 3°6.194 10.6 20 17.4 102770 85
2004-06-14 15:06 51°19.679 3°5.895 10.3 23 17.6 102770 85
2004-06-14 15:07 51°19.536 3°5.601 10.8 20 17.7 102770 85
2004-06-14 15:08 51°19.393 3°5.307 10.2 24 17.7 102770 84
2004-06-14 15:09 51°19.245 3°5.021 10.5 15 17.8 102770 84
2004-06-14 15:10 51°19.126 3°4.693 10.9 19 17.8 102770 84
2004-06-14 15:11 51°19.002 3°4.367 10.9 18 17.8 102770 84
2004-06-14 15:12 51°18.847 3°4.077 10.8 23 17.8 102760 83
2004-06-14 15:13 51°18.72 3°3.753 10.6 17 17.9 102770 83
2004-06-14 15:14 51°18.57 3°3.454 10.6 21 17.9 102760 83
2004-06-14 15:15 51°18.447 3°3.123 10.7 15 17.9 102770 83
2004-06-14 15:16 51°18.307 3°2.81 10.8 18 17.9 102760 82
2004-06-14 15:17 51°18.201 3°2.462 11.1 19 17.9 102760 82
2004-06-14 15:18 51°18.08 3°2.137 11.1 11 17.9 102760 83
2004-06-14 15:19 51°17.99 3°1.778 10.5 16 17.9 102760 82
2004-06-14 15:20 51°17.886 3°1.43 10.9 14 17.9 102750 82
2004-06-14 15:21 51°17.793 3°1.075 10.3 18 18 102750 83
2004-06-14 15:22 51°17.685 3°0.719 10.7 13 17.9 102750 82
2004-06-14 15:23 51°17.576 3°0.373 10.5 14 18 102750 82
2004-06-14 15:24 51°17.483 3°0.014 10.5 17 18 102750 82
2004-06-14 15:25 51°17.379 2°59.663 10.9 11 17.9 102750 82
2004-06-14 15:26 51°17.271 2°59.317 11 17 18 102760 82
2004-06-14 15:27 51°17.152 2°58.978 11.1 20 18 102750 82
2004-06-14 15:28 51°17.029 2°58.649 10.6 18 18 102750 82
2004-06-14 15:29 51°16.919 2°58.299 10.6 18 18.1 102750 82
2004-06-14 15:30 51°16.787 2°57.971 10.7 15 18.1 102750 82
2004-06-14 15:31 51°16.652 2°57.643 10.7 19 18.1 102750 82
2004-06-14 15:32 51°16.525 2°57.3 10.9 22 18.2 102750 82
2004-06-14 15:33 51°16.39 2°56.974 10.8 20 18.2 102750 82
2004-06-14 15:34 51°16.233 2°56.681 9.7 23 18.2 102750 81
2004-06-14 15:35 51°16.073 2°56.394 10.1 18 18.2 102750 81
2004-06-14 15:36 51°15.909 2°56.119 9.9 25 18.3 102750 81
2004-06-14 15:37 51°15.753 2°55.839 10.3 15 18.3 102750 81
2004-06-14 15:38 51°15.617 2°55.534 9.7 20 18.3 102750 81
2004-06-14 15:39 51°15.437 2°55.3 9.3 21 18.3 102750 81
2004-06-14 15:40 51°15.249 2°55.111 8.3 31 18.4 102750 80
2004-06-14 15:41 51°15.033 2°55.021 8.5 24 18.4 102750 80
2004-06-14 15:42 51°14.81 2°54.965 8.3 31 18.4 102750 80
2004-06-14 15:43 51°14.59 2°54.978 7.5 30 18.4 102760 80
2004-06-14 15:44 51°14.388 2°55.076 5.6 31 18.3 102760 81